createdAt,value
2024-05-09T00:04:48.685Z,26.66
2024-05-09T00:19:50.797Z,27.12
2024-05-09T00:34:52.876Z,27.59
2024-05-09T00:49:54.945Z,27.83
2024-05-09T01:04:57.134Z,26.9
2024-05-09T01:19:59.376Z,26.4
2024-05-09T01:35:01.518Z,26.32
2024-05-09T01:50:03.736Z,25.49
2024-05-09T02:05:06.170Z,24.6
2024-05-09T02:20:13.151Z,23.15
2024-05-09T02:35:18.244Z,22.41
2024-05-09T02:50:29.079Z,21.19
2024-05-09T03:05:36.682Z,21.17
2024-05-09T03:20:39.487Z,20.69
2024-05-09T03:35:41.963Z,19.74
2024-05-09T03:50:44.079Z,18.88
2024-05-09T04:05:46.246Z,17.61
2024-05-09T04:20:48.519Z,17.58
2024-05-09T04:35:50.714Z,17
2024-05-09T04:50:53.177Z,16.65
2024-05-09T05:05:55.850Z,16.49
2024-05-09T05:20:58.155Z,15.58
2024-05-09T05:36:00.620Z,15.03
2024-05-09T05:51:04.627Z,14.9
2024-05-09T06:06:07.080Z,14.31
2024-05-09T06:21:09.290Z,14.62
2024-05-09T06:36:11.448Z,14.26
2024-05-09T06:51:13.607Z,13.27
2024-05-09T07:06:15.815Z,12.93
2024-05-09T07:21:18.154Z,12.8
2024-05-09T07:36:20.365Z,12.86
2024-05-09T08:06:27.494Z,12.15
2024-05-09T08:21:29.635Z,11.41
2024-05-09T08:36:31.753Z,11.05
2024-05-09T08:51:33.782Z,10.84
2024-05-09T09:06:35.894Z,10.74
2024-05-09T09:21:37.930Z,10.4
2024-05-09T09:36:39.947Z,10.09
2024-05-09T09:51:41.959Z,10.36
2024-05-09T10:06:44.020Z,9.35
2024-05-09T10:21:46.057Z,9.7
2024-05-09T10:36:48.110Z,9.93
2024-05-09T10:51:50.331Z,9.67
2024-05-09T11:06:52.375Z,9.53
2024-05-09T11:21:54.460Z,9.18
2024-05-09T11:36:56.506Z,9.09
2024-05-09T11:51:58.675Z,8.65
2024-05-09T12:07:00.769Z,8.83
2024-05-09T12:22:02.841Z,8.62
2024-05-09T12:37:04.938Z,8.59
2024-05-09T12:52:07.279Z,8.24
2024-05-09T13:07:09.543Z,8.5
2024-05-09T13:22:11.876Z,8.57
2024-05-09T13:37:14.107Z,9.23
2024-05-09T13:52:16.207Z,10.09
2024-05-09T14:07:18.309Z,10.79
2024-05-09T14:22:20.388Z,11.47
2024-05-09T14:37:22.457Z,11.75
2024-05-09T14:52:24.500Z,16.07
2024-05-09T15:07:26.615Z,14.22
2024-05-09T15:22:28.622Z,15.5
2024-05-09T15:37:30.624Z,18.58
2024-05-09T15:52:32.671Z,18.64
2024-05-09T16:07:34.657Z,18.82
2024-05-09T16:22:36.640Z,19.11
2024-05-09T16:37:38.745Z,20.51
2024-05-09T16:52:40.840Z,20.83
2024-05-09T17:07:42.899Z,21.55
2024-05-09T17:22:44.886Z,22.31
2024-05-09T17:37:46.964Z,22.38
2024-05-09T17:52:49.282Z,22.87
2024-05-09T18:07:51.371Z,23.7
2024-05-09T18:22:53.478Z,24.55
2024-05-09T18:37:55.506Z,25.37
2024-05-09T18:52:58.319Z,26.08
2024-05-09T19:08:00.495Z,26.53
2024-05-09T19:23:02.620Z,26.73
2024-05-09T19:38:04.866Z,27.16
2024-05-09T19:53:06.916Z,27.8
2024-05-09T20:08:08.985Z,28.64
2024-05-09T20:23:11.269Z,29.45
2024-05-09T20:38:13.590Z,29.49
2024-05-09T20:53:15.757Z,29.86
2024-05-09T21:08:17.867Z,29.67
2024-05-09T21:23:20.025Z,30.65
2024-05-09T21:38:22.084Z,29.5
2024-05-09T21:53:24.247Z,29.93
2024-05-09T22:08:26.194Z,30.19
2024-05-09T22:23:28.331Z,31.12
2024-05-09T22:38:30.403Z,30.83
2024-05-09T22:53:32.395Z,30.04
2024-05-09T23:08:34.376Z,32.08
2024-05-09T23:23:36.378Z,32.25
2024-05-09T23:38:38.581Z,32.02
2024-05-09T23:53:40.567Z,32.19
